Time;durP1;ratioP1;P1;durP2;ratioP2;P2;SDS_P1;SDS_P2;PMS_P1;PMS_P2;Temp;Humidity;BMP_temperature;BMP_pressure;BME280_temperature;BME280_humidity;BME280_pressure;Samples;Min_cycle;Max_cycle;Signal;HPM_P1;HPM_P2
2024/04/01 00:01:56;;;;;;;5.47;2.33;;;;;;;15.44;64.51;98386.25;5113236;28;20050;-68
2024/04/01 00:04:23;;;;;;;5.18;3.90;;;;;;;15.48;64.18;98376.72;5113274;28;20501;-69
2024/04/01 00:06:50;;;;;;;5.38;2.10;;;;;;;15.51;63.93;98382.56;5113218;28;20039;-68
2024/04/01 00:09:18;;;;;;;18.45;2.22;;;;;;;15.46;64.06;98378.50;5113168;28;20039;-69
2024/04/01 00:11:45;;;;;;;4.00;3.63;;;;;;;15.43;63.99;98379.41;5113308;28;20044;-69
2024/04/01 00:14:14;;;;;;;4.40;2.97;;;;;;;15.37;64.31;98371.97;5112939;28;20036;-68
2024/04/01 00:16:41;;;;;;;2.13;1.95;;;;;;;15.24;64.17;98381.06;5112932;28;20043;-69
2024/04/01 00:19:10;;;;;;;2.58;2.20;;;;;;;15.09;65.00;98385.09;5112845;28;20036;-68
2024/04/01 00:21:36;;;;;;;4.35;2.92;;;;;;;15.02;64.71;98382.84;5096538;28;20043;-69
2024/04/01 00:24:04;;;;;;;1.70;1.60;;;;;;;15.01;65.25;98376.03;5112782;28;20054;-68
2024/04/01 00:26:31;;;;;;;1.30;1.20;;;;;;;15.00;65.44;98384.63;5095920;28;20040;-68
2024/04/01 00:28:59;;;;;;;10.27;2.17;;;;;;;15.04;65.67;98392.16;5096030;28;20085;-69
2024/04/01 00:31:29;;;;;;;7.45;4.50;;;;;;;14.95;65.90;98360.88;5113596;28;20460;-69
2024/04/01 00:33:57;;;;;;;17.10;2.92;;;;;;;15.17;65.27;98389.94;5096050;28;20097;-67
2024/04/01 00:36:25;;;;;;;3.65;2.25;;;;;;;15.22;65.47;98385.44;5112840;28;20402;-69
2024/04/01 00:38:55;;;;;;;3.15;1.92;;;;;;;15.30;65.32;98383.41;5096062;28;20088;-68
2024/04/01 00:41:22;;;;;;;2.30;1.60;;;;;;;15.39;64.94;98389.00;5112979;28;20051;-68
2024/04/01 00:43:50;;;;;;;5.05;2.95;;;;;;;15.44;64.67;98381.13;5112619;28;20081;-69
2024/04/01 00:46:18;;;;;;;6.28;2.97;;;;;;;15.57;64.27;98382.31;5079045;28;20046;-69
2024/04/01 00:48:48;;;;;;;5.30;3.22;;;;;;;15.67;64.26;98393.88;5095924;28;20044;-69
2024/04/01 00:51:16;;;;;;;23.90;3.33;;;;;;;15.66;64.16;98392.22;5112701;28;20048;-68
2024/04/01 00:53:46;;;;;;;11.80;2.47;;;;;;;15.65;64.01;98395.69;5112639;28;20382;-69
2024/04/01 00:56:17;;;;;;;7.60;2.97;;;;;;;15.60;64.29;98391.63;5112771;28;20085;-69
2024/04/01 00:58:45;;;;;;;2.70;1.80;;;;;;;15.56;64.47;98384.94;5112898;28;20094;-69
2024/04/01 01:01:14;;;;;;;6.75;4.22;;;;;;;15.59;64.64;98384.81;5112960;28;20040;-68
2024/04/01 01:03:42;;;;;;;3.42;2.03;;;;;;;15.56;64.45;98385.78;5116507;28;20035;-68
2024/04/01 01:06:14;;;;;;;1.42;1.33;;;;;;;15.51;64.42;98387.69;5116368;28;20550;-69
2024/04/01 01:08:43;;;;;;;1.67;1.58;;;;;;;15.42;64.65;98388.06;5116668;28;20044;-70
2024/04/01 01:11:09;;;;;;;6.72;2.95;;;;;;;15.34;64.77;98377.25;5099704;28;20087;-69
2024/04/01 01:13:37;;;;;;;10.18;5.47;;;;;;;15.31;64.94;98375.63;5116306;28;20244;-67
2024/04/01 01:16:05;;;;;;;3.45;2.80;;;;;;;15.43;64.98;98374.28;5116734;28;20051;-69
2024/04/01 01:18:33;;;;;;;6.70;4.40;;;;;;;15.50;65.26;98370.59;5116101;28;20047;-68
2024/04/01 01:21:00;;;;;;;9.55;3.67;;;;;;;15.53;64.81;98360.19;5099476;28;20444;-69
2024/04/01 01:23:29;;;;;;;4.53;1.98;;;;;;;15.57;64.91;98361.75;5116743;28;20040;-68
2024/04/01 01:25:55;;;;;;;13.13;3.90;;;;;;;15.59;64.69;98353.97;5116598;28;20542;-69
2024/04/01 01:28:23;;;;;;;6.40;4.25;;;;;;;15.71;64.01;98354.28;5115934;28;20478;-69
2024/04/01 01:30:50;;;;;;;1.30;1.20;;;;;;;15.73;63.49;98342.19;5115783;28;20044;-68
2024/04/01 01:33:18;;;;;;;3.83;3.42;;;;;;;15.87;63.59;98345.00;5116254;28;20098;-69
2024/04/01 01:35:45;;;;;;;1.48;1.38;;;;;;;15.93;62.92;98344.72;5116072;28;20039;-68
2024/04/01 01:38:14;;;;;;;4.60;2.88;;;;;;;15.99;63.05;98349.59;5099137;28;20067;-68
2024/04/01 01:40:43;;;;;;;9.07;5.13;;;;;;;16.02;62.58;98344.34;5098893;28;20043;-68
2024/04/01 01:43:10;;;;;;;9.45;2.35;;;;;;;16.08;62.63;98348.34;5115551;28;20517;-68
2024/04/01 01:45:37;;;;;;;7.68;4.43;;;;;;;16.07;62.46;98342.41;5115635;28;20081;-68
2024/04/01 01:48:05;;;;;;;10.85;4.85;;;;;;;16.04;62.42;98332.22;5115678;28;20039;-69
2024/04/01 01:50:32;;;;;;;1.88;1.75;;;;;;;16.03;62.78;98325.41;5098572;28;20476;-68
2024/04/01 01:53:01;;;;;;;7.32;2.88;;;;;;;16.10;62.19;98342.22;5115321;28;20044;-69
2024/04/01 01:55:28;;;;;;;;;;;;;;;16.14;61.96;98336.97;5116401;28;20058;-69
2024/04/01 01:57:57;;;;;;;5.85;2.00;;;;;;;16.21;61.94;98333.22;5115458;28;19920;-69
2024/04/01 02:00:24;;;;;;;11.57;3.38;;;;;;;16.26;61.54;98333.84;5115371;28;20134;-68
2024/04/01 02:02:52;;;;;;;9.15;1.13;;;;;;;16.33;61.23;98337.81;5097375;28;20059;-68
2024/04/01 02:05:19;;;;;;;7.07;2.80;;;;;;;16.38;60.91;98328.13;5115224;28;20051;-68
2024/04/01 02:07:46;;;;;;;5.13;2.38;;;;;;;16.26;61.15;98300.38;5098588;28;20075;-67
2024/04/01 02:10:13;;;;;;;4.10;2.53;;;;;;;16.52;60.69;98311.16;5115744;28;20074;-68
2024/04/01 02:12:41;;;;;;;21.38;6.03;;;;;;;16.54;60.38;98314.50;5115308;28;20027;-67
2024/04/01 02:15:14;;;;;;;4.00;3.28;;;;;;;16.59;60.28;98314.28;5115000;28;20032;-68
2024/04/01 02:17:42;;;;;;;24.92;4.28;;;;;;;16.58;60.32;98322.94;5115380;28;20077;-68
2024/04/01 02:20:15;;;;;;;5.05;3.58;;;;;;;16.53;60.77;98315.41;5114853;28;20044;-69
2024/04/01 02:22:45;;;;;;;11.60;2.55;;;;;;;16.51;60.59;98306.91;5115038;28;20035;-68
2024/04/01 02:25:12;;;;;;;7.22;3.67;;;;;;;16.46;60.75;98308.84;5115442;28;20051;-68
2024/04/01 02:27:40;;;;;;;7.13;5.03;;;;;;;16.41;61.13;98300.47;5115249;28;20067;-68
2024/04/01 02:30:07;;;;;;;1.38;1.27;;;;;;;16.44;61.05;98294.34;5097913;28;20035;-68
2024/04/01 02:32:36;;;;;;;13.52;3.95;;;;;;;16.46;60.95;98292.56;5097987;28;20088;-68
2024/04/01 02:35:04;;;;;;;8.65;4.28;;;;;;;16.44;61.20;98304.66;5114724;28;20124;-67
2024/04/01 02:37:32;;;;;;;10.23;2.35;;;;;;;16.41;61.05;98290.19;5115018;28;20036;-69
2024/04/01 02:39:59;;;;;;;13.95;3.95;;;;;;;16.37;61.42;98290.41;5114776;28;20027;-68
2024/04/01 02:42:27;;;;;;;3.42;2.65;;;;;;;16.40;61.21;98282.53;5114568;28;20048;-69
2024/04/01 02:44:54;;;;;;;12.90;4.57;;;;;;;16.46;60.71;98271.97;5115089;28;20038;-69
2024/04/01 02:47:22;;;;;;;3.13;2.35;;;;;;;16.55;60.56;98256.09;5114694;28;20044;-69
2024/04/01 02:49:50;;;;;;;1.50;1.38;;;;;;;16.50;60.80;98263.19;5114609;28;20398;-69
2024/04/01 02:52:20;;;;;;;19.50;3.13;;;;;;;16.39;61.06;98249.94;5114650;28;20048;-69
2024/04/01 02:54:46;;;;;;;2.42;2.00;;;;;;;16.32;61.54;98253.72;5114918;28;20052;-69
2024/04/01 02:57:14;;;;;;;13.38;2.85;;;;;;;16.19;61.45;98252.66;5114366;28;20028;-69
2024/04/01 02:59:41;;;;;;;2.55;1.90;;;;;;;16.18;61.86;98266.41;5114473;28;20046;-69
2024/04/01 03:02:10;;;;;;;4.93;2.35;;;;;;;16.09;62.08;98263.38;5114278;28;20039;-69
2024/04/01 03:04:37;;;;;;;;;;;;;;;16.02;62.50;98256.00;5114846;28;20035;-70
2024/04/01 03:07:08;;;;;;;4.88;2.60;;;;;;;15.98;62.46;98260.44;5114440;28;19920;-69
2024/04/01 03:09:35;;;;;;;1.75;1.63;;;;;;;16.05;62.03;98256.66;5114077;28;20039;-69
2024/04/01 03:12:03;;;;;;;6.22;1.75;;;;;;;16.20;61.86;98264.59;5097221;28;20493;-68
2024/04/01 03:14:30;;;;;;;8.27;4.05;;;;;;;16.28;61.27;98258.19;5114438;28;20048;-68
2024/04/01 03:16:58;;;;;;;18.30;4.22;;;;;;;16.41;60.88;98253.31;5114432;28;20044;-70
2024/04/01 03:19:25;;;;;;;12.13;5.22;;;;;;;16.35;60.50;98243.28;5113880;28;20075;-69
2024/04/01 03:21:52;;;;;;;3.28;2.97;;;;;;;16.44;60.51;98253.16;5113807;28;20039;-69
2024/04/01 03:24:21;;;;;;;10.85;5.70;;;;;;;16.41;60.78;98248.16;5113068;28;20504;-70
2024/04/01 03:26:48;;;;;;;1.45;0.90;;;;;;;16.35;60.95;98245.88;5113756;28;20035;-69
2024/04/01 03:29:15;;;;;;;4.55;3.22;;;;;;;16.29;61.05;98253.91;5113541;28;20043;-69
2024/04/01 03:31:43;;;;;;;15.90;3.55;;;;;;;16.23;61.40;98249.84;5113830;28;20039;-69
2024/04/01 03:34:09;;;;;;;2.35;2.15;;;;;;;16.19;61.32;98252.66;5113827;28;20047;-69
2024/04/01 03:36:37;;;;;;;4.22;2.78;;;;;;;16.10;61.58;98249.56;5113794;28;20108;-70
2024/04/01 03:39:06;;;;;;;6.20;2.97;;;;;;;16.01;61.85;98255.16;5113520;28;20405;-70
2024/04/01 03:41:35;;;;;;;10.35;5.00;;;;;;;15.96;62.00;98253.69;5096648;28;20055;-70
2024/04/01 03:44:01;;;;;;;4.63;1.80;;;;;;;15.99;61.69;98259.53;5113478;28;20493;-70
2024/04/01 03:46:29;;;;;;;2.42;1.77;;;;;;;15.99;61.92;98251.81;5079724;28;20051;-70
2024/04/01 03:48:57;;;;;;;4.13;3.38;;;;;;;15.95;62.38;98254.59;5113511;28;20087;-70
2024/04/01 03:51:24;;;;;;;6.63;2.97;;;;;;;15.90;62.32;98259.13;5113587;28;20039;-70
2024/04/01 03:53:51;;;;;;;13.35;4.82;;;;;;;15.74;62.50;98230.66;5113477;28;20039;-69
2024/04/01 03:56:19;;;;;;;15.23;3.25;;;;;;;15.85;62.21;98243.03;5113753;28;20096;-70
2024/04/01 03:58:47;;;;;;;17.13;4.10;;;;;;;15.91;62.06;98243.59;5113116;28;20036;-70
2024/04/01 04:01:16;;;;;;;16.70;4.22;;;;;;;15.84;62.12;98242.22;5113074;28;20036;-69
2024/04/01 04:03:42;;;;;;;1.70;1.52;;;;;;;15.72;62.57;98227.31;5096165;28;20040;-70
2024/04/01 04:06:11;;;;;;;2.55;2.25;;;;;;;15.81;62.33;98237.19;5079026;28;20509;-69
2024/04/01 04:08:38;;;;;;;5.03;2.20;;;;;;;15.78;62.72;98234.78;5113237;28;20138;-70
2024/04/01 04:11:09;;;;;;;5.03;3.83;;;;;;;15.80;62.44;98225.25;5113042;28;20043;-69
2024/04/01 04:13:35;;;;;;;12.90;7.32;;;;;;;15.89;62.34;98219.69;5113159;28;20074;-69
2024/04/01 04:16:05;;;;;;;3.50;2.92;;;;;;;15.90;61.76;98216.22;5113269;28;20031;-70
2024/04/01 04:18:33;;;;;;;10.80;2.58;;;;;;;15.88;62.13;98217.19;5112775;28;20063;-69
2024/04/01 04:21:00;;;;;;;6.25;3.55;;;;;;;15.88;62.18;98212.84;5113155;28;20055;-69
2024/04/01 04:23:28;;;;;;;3.42;2.38;;;;;;;15.83;62.05;98204.53;5113123;28;20436;-69
2024/04/01 04:25:55;;;;;;;38.17;7.20;;;;;;;15.85;62.27;98207.88;5095440;28;20101;-69
2024/04/01 04:28:22;;;;;;;3.22;2.38;;;;;;;15.84;62.25;98205.34;5112619;28;20036;-70
2024/04/01 04:30:50;;;;;;;2.80;1.77;;;;;;;15.84;61.93;98210.50;5096081;28;20140;-69
2024/04/01 04:33:19;;;;;;;9.82;2.85;;;;;;;15.41;62.25;98145.53;5096038;28;20058;-70
2024/04/01 04:35:48;;;;;;;4.38;3.40;;;;;;;15.77;62.27;98209.09;5114170;28;20051;-70
2024/04/01 04:38:15;;;;;;;2.05;1.73;;;;;;;15.72;62.44;98209.31;5117263;28;20497;-70
2024/04/01 04:40:42;;;;;;;2.08;1.88;;;;;;;15.70;62.56;98203.41;5117188;28;20036;-69
2024/04/01 04:43:09;;;;;;;1.58;1.25;;;;;;;15.74;62.59;98199.78;5117108;28;20043;-69
2024/04/01 04:45:47;;;;;;;3.55;2.70;;;;;;;15.86;62.00;98203.56;5117039;28;20456;-68
2024/04/01 04:48:15;;;;;;;4.15;2.20;;;;;;;15.99;61.79;98187.47;5117092;28;20088;-69
2024/04/01 04:50:44;;;;;;;1.95;1.77;;;;;;;16.21;60.64;98191.63;5116827;28;20036;-68
2024/04/01 04:53:10;;;;;;;2.72;2.03;;;;;;;16.32;60.40;98181.63;5117000;28;20040;-70
2024/04/01 04:55:40;;;;;;;8.00;3.28;;;;;;;16.41;59.82;98182.03;5116997;28;20040;-69
2024/04/01 04:58:09;;;;;;;4.75;3.55;;;;;;;16.49;59.96;98181.66;5116693;28;20393;-69
2024/04/01 05:00:36;;;;;;;3.78;2.95;;;;;;;16.60;59.45;98193.13;5117114;28;20051;-69
2024/04/01 05:03:05;;;;;;;19.58;5.60;;;;;;;16.65;59.55;98203.25;5099728;28;20051;-69
2024/04/01 05:05:34;;;;;;;9.50;3.92;;;;;;;16.67;59.41;98209.16;5116600;28;20046;-68
2024/04/01 05:08:04;;;;;;;8.95;1.80;;;;;;;16.74;59.05;98205.38;5098485;28;20043;-69
2024/04/01 05:10:31;;;;;;;6.60;3.28;;;;;;;16.80;59.07;98211.94;5099507;28;20039;-70
2024/04/01 05:12:59;;;;;;;23.52;2.72;;;;;;;16.83;58.70;98220.38;5116579;28;20043;-67
2024/04/01 05:15:27;;;;;;;4.80;2.75;;;;;;;16.86;57.93;98199.59;5116495;28;20039;-68
2024/04/01 05:17:53;;;;;;;5.57;2.72;;;;;;;16.97;58.39;98204.19;5116171;28;20089;-68
2024/04/01 05:20:21;;;;;;;24.60;5.07;;;;;;;16.93;58.49;98200.97;5116029;28;20058;-69
2024/04/01 05:22:51;;;;;;;5.03;2.80;;;;;;;16.94;58.24;98192.31;5116391;28;20039;-68
2024/04/01 05:25:19;;;;;;;;;;;;;;;16.92;58.64;98183.81;5099331;28;20443;-68
2024/04/01 05:27:46;;;;;;;10.90;4.60;;;;;;;16.91;58.57;98196.78;5116185;28;19924;-68
2024/04/01 05:30:15;;;;;;;22.52;3.17;;;;;;;16.95;58.64;98188.81;5115923;28;20793;-69
2024/04/01 05:32:42;;;;;;;8.40;3.63;;;;;;;16.91;58.72;98174.44;5116163;28;20039;-68
2024/04/01 05:35:11;;;;;;;11.75;2.92;;;;;;;17.01;58.38;98183.34;5116202;28;20036;-69
2024/04/01 05:37:38;;;;;;;2.47;2.15;;;;;;;17.11;57.90;98176.81;5116064;28;20098;-67
2024/04/01 05:40:07;;;;;;;11.32;2.95;;;;;;;17.25;57.46;98166.63;5116071;28;20040;-68
2024/04/01 05:42:35;;;;;;;7.07;4.53;;;;;;;17.35;57.38;98165.25;5115888;28;20032;-68
2024/04/01 05:45:03;;;;;;;3.45;2.63;;;;;;;17.49;56.84;98163.69;5115738;28;20032;-68
2024/04/01 05:47:30;;;;;;;6.53;4.25;;;;;;;17.60;56.38;98163.97;5114955;28;20048;-69
2024/04/01 05:49:57;;;;;;;5.05;2.97;;;;;;;17.69;56.21;98161.75;5116160;28;20039;-67
2024/04/01 05:52:25;;;;;;;1.67;1.58;;;;;;;17.78;55.58;98145.75;5115482;28;20071;-69
2024/04/01 05:54:52;;;;;;;7.47;3.28;;;;;;;17.90;55.24;98162.34;5115788;28;20044;-68
2024/04/01 05:57:20;;;;;;;3.42;2.38;;;;;;;18.00;55.34;98155.75;5115623;28;20048;-68
2024/04/01 05:59:48;;;;;;;6.97;3.83;;;;;;;18.10;55.14;98151.75;5115318;28;20039;-69
2024/04/01 06:02:16;;;;;;;5.35;2.83;;;;;;;18.18;55.10;98154.75;5115588;28;20027;-68
2024/04/01 06:04:42;;;;;;;4.90;3.35;;;;;;;18.23;54.71;98146.72;5115264;28;20039;-68
2024/04/01 06:07:10;;;;;;;8.13;3.67;;;;;;;18.27;54.73;98137.88;5114726;28;20036;-67
2024/04/01 06:09:38;;;;;;;7.90;2.50;;;;;;;18.31;54.34;98142.78;5115346;28;20044;-69
2024/04/01 06:12:06;;;;;;;12.32;4.32;;;;;;;18.37;55.10;98165.72;5081533;28;20406;-68
2024/04/01 06:14:33;;;;;;;23.08;5.00;;;;;;;18.38;54.65;98159.59;5115453;28;20056;-68
2024/04/01 06:17:02;;;;;;;7.75;3.40;;;;;;;18.32;54.38;98136.72;5115346;28;20057;-69
2024/04/01 06:19:29;;;;;;;4.20;3.00;;;;;;;18.27;54.74;98127.56;5114722;28;20058;-68
2024/04/01 06:21:56;;;;;;;4.95;2.92;;;;;;;18.27;54.42;98128.38;5115234;28;20088;-70
2024/04/01 06:24:23;;;;;;;6.63;3.55;;;;;;;18.20;54.60;98111.59;5115324;28;20071;-69
2024/04/01 06:26:51;;;;;;;5.10;3.78;;;;;;;18.34;54.57;98139.19;5098121;28;20057;-70
2024/04/01 06:29:17;;;;;;;6.85;3.92;;;;;;;18.27;54.81;98130.97;5115022;28;20036;-69
2024/04/01 06:31:45;;;;;;;11.90;4.45;;;;;;;18.34;54.99;98127.13;5098020;28;20044;-70
2024/04/01 06:34:13;;;;;;;3.28;2.97;;;;;;;18.40;55.31;98152.63;5098017;28;20062;-69
2024/04/01 06:36:41;;;;;;;8.10;2.55;;;;;;;18.45;55.46;98147.19;5114932;28;20405;-68
2024/04/01 06:39:10;;;;;;;6.43;2.17;;;;;;;18.50;55.27;98146.03;5114977;28;20485;-67
2024/04/01 06:41:39;;;;;;;9.68;3.22;;;;;;;18.56;55.30;98134.50;5097908;28;20043;-69
2024/04/01 06:44:06;;;;;;;6.05;4.32;;;;;;;18.58;55.13;98143.00;5114642;28;20047;-67
2024/04/01 06:46:34;;;;;;;6.35;3.45;;;;;;;18.56;54.79;98145.69;5097719;28;20554;-67
2024/04/01 06:49:00;;;;;;;12.13;3.67;;;;;;;18.56;54.64;98135.34;5114374;28;20046;-68
2024/04/01 06:51:29;;;;;;;6.75;4.18;;;;;;;18.75;54.36;98145.44;5114312;28;20145;-67
2024/04/01 06:53:56;;;;;;;2.33;2.13;;;;;;;18.87;53.65;98130.97;5114666;28;20397;-69
2024/04/01 06:56:24;;;;;;;6.38;3.25;;;;;;;18.99;53.49;98143.16;5114842;28;20047;-68
2024/04/01 06:58:50;;;;;;;5.30;3.92;;;;;;;19.06;53.41;98134.13;5114079;28;20043;-69
2024/04/01 07:01:18;;;;;;;5.15;4.15;;;;;;;19.06;54.09;98124.63;5114252;28;20054;-70
2024/04/01 07:03:45;;;;;;;5.75;3.03;;;;;;;19.15;54.11;98123.22;5097457;28;20031;-69
2024/04/01 07:06:13;;;;;;;9.00;2.42;;;;;;;19.24;53.80;98120.09;5114318;28;20045;-68
2024/04/01 07:08:41;;;;;;;13.85;3.90;;;;;;;19.36;53.48;98121.97;5114223;28;20027;-68
2024/04/01 07:11:09;;;;;;;7.07;4.15;;;;;;;19.49;52.64;98117.69;5097283;28;20100;-68
2024/04/01 07:13:35;;;;;;;8.82;5.15;;;;;;;19.59;52.56;98113.63;5114408;28;20075;-67
2024/04/01 07:16:03;;;;;;;2.78;2.25;;;;;;;19.69;52.62;98119.91;5097152;28;20047;-68
2024/04/01 07:18:31;;;;;;;3.30;2.90;;;;;;;19.69;52.38;98114.72;5114346;28;20042;-68
2024/04/01 07:20:58;;;;;;;10.30;3.45;;;;;;;19.74;52.07;98129.97;5097266;28;20051;-66
2024/04/01 07:23:25;;;;;;;10.35;5.55;;;;;;;19.73;52.02;98115.34;5113724;28;20051;-70
2024/04/01 07:25:54;;;;;;;4.57;4.07;;;;;;;19.76;52.29;98128.94;5097071;28;20100;-67
2024/04/01 07:28:21;;;;;;;4.68;3.40;;;;;;;19.78;51.75;98097.75;5113894;28;20046;-69
2024/04/01 07:30:48;;;;;;;11.50;3.58;;;;;;;19.81;51.83;98113.09;5113931;28;20382;-68
2024/04/01 07:33:15;;;;;;;2.95;2.13;;;;;;;19.83;51.89;98121.59;5113758;28;20031;-68
2024/04/01 07:35:43;;;;;;;9.38;3.78;;;;;;;19.84;52.34;98131.84;5114030;28;20482;-67
2024/04/01 07:38:10;;;;;;;15.10;4.78;;;;;;;19.82;52.17;98130.31;5096884;28;20040;-67
2024/04/01 07:40:37;;;;;;;14.10;4.88;;;;;;;19.75;52.43;98123.84;5113382;28;20040;-68
2024/04/01 07:43:06;;;;;;;8.50;5.40;;;;;;;19.66;52.65;98130.44;5096467;28;20398;-69
2024/04/01 07:45:33;;;;;;;26.30;7.22;;;;;;;19.63;52.71;98130.63;5113504;28;20040;-68
2024/04/01 07:48:00;;;;;;;7.35;3.30;;;;;;;19.61;53.12;98116.94;5113460;28;20435;-68
2024/04/01 07:50:28;;;;;;;3.25;2.95;;;;;;;19.69;52.56;98139.75;5113796;28;20395;-67
2024/04/01 07:52:54;;;;;;;12.98;4.15;;;;;;;19.74;52.59;98148.91;5113555;28;20043;-68
2024/04/01 07:55:22;;;;;;;3.75;3.03;;;;;;;19.82;52.31;98144.06;5113786;28;20481;-69
2024/04/01 07:57:49;;;;;;;3.97;3.15;;;;;;;19.97;51.34;98156.06;5113305;28;20061;-68
2024/04/01 08:00:18;;;;;;;9.38;4.22;;;;;;;20.12;51.37;98153.44;5113654;28;20043;-68
2024/04/01 08:02:44;;;;;;;;;;;;;;;20.18;51.40;98143.50;5114021;28;20579;-69
2024/04/01 08:05:12;;;;;;;3.35;2.25;;;;;;;20.28;51.30;98154.13;5113099;28;20370;-66
2024/04/01 08:07:39;;;;;;;2.25;2.05;;;;;;;20.31;51.52;98154.78;5113284;28;20406;-68
2024/04/01 08:10:07;;;;;;;13.77;4.45;;;;;;;20.43;51.00;98155.75;5113254;28;20497;-67
2024/04/01 08:12:34;;;;;;;10.55;3.88;;;;;;;20.54;50.49;98176.59;5113246;28;20448;-68
2024/04/01 08:15:02;;;;;;;3.83;3.00;;;;;;;20.58;50.73;98157.34;5113150;28;20035;-67
2024/04/01 08:17:31;;;;;;;3.05;2.75;;;;;;;20.62;50.70;98164.81;5112957;28;20508;-66
2024/04/01 08:19:59;;;;;;;17.58;3.28;;;;;;;20.64;50.70;98167.31;5112670;28;20048;-67
2024/04/01 08:22:27;;;;;;;17.17;2.38;;;;;;;20.66;50.41;98165.44;5113110;28;20047;-67
2024/04/01 08:24:55;;;;;;;3.53;2.50;;;;;;;20.68;50.02;98167.00;5112840;28;20047;-68
2024/04/01 08:27:22;;;;;;;3.90;1.95;;;;;;;20.70;49.78;98182.47;5113168;28;20081;-67
2024/04/01 08:29:49;;;;;;;4.90;2.53;;;;;;;20.71;49.21;98168.56;5112793;28;20040;-67
2024/04/01 08:32:16;;;;;;;3.00;1.98;;;;;;;20.75;49.28;98174.38;5096059;28;20089;-66
2024/04/01 08:34:45;;;;;;;18.13;4.90;;;;;;;20.75;49.08;98175.22;5112959;28;20126;-68
2024/04/01 08:37:12;;;;;;;10.48;4.40;;;;;;;20.80;48.63;98167.97;5112798;28;20036;-68
2024/04/01 08:39:40;;;;;;;5.13;3.92;;;;;;;20.84;48.48;98172.00;5112977;28;20047;-68
2024/04/01 08:42:10;;;;;;;5.95;4.18;;;;;;;20.84;48.00;98173.78;5112907;28;20486;-68
2024/04/01 08:44:38;;;;;;;6.88;3.53;;;;;;;20.55;48.48;98100.50;5112881;28;20394;-68
2024/04/01 08:47:05;;;;;;;4.80;3.70;;;;;;;20.89;47.93;98182.91;5112535;28;20486;-66
2024/04/01 08:49:44;;;;;;;2.15;1.70;;;;;;;20.88;47.99;98196.81;5112797;28;20035;-68
2024/04/01 08:52:15;;;;;;;11.52;5.65;;;;;;;20.94;47.46;98211.97;5095919;28;20044;-66
2024/04/01 08:54:43;;;;;;;12.68;4.57;;;;;;;20.93;47.48;98197.34;5112955;28;20048;-67
2024/04/01 08:57:10;;;;;;;7.35;3.67;;;;;;;20.95;47.39;98208.44;5112806;28;20040;-66
2024/04/01 08:59:38;;;;;;;10.85;4.35;;;;;;;20.97;47.47;98205.75;5095493;28;20493;-67
2024/04/01 09:02:05;;;;;;;5.32;2.45;;;;;;;20.96;47.68;98199.75;5095872;28;20056;-67
2024/04/01 09:04:33;;;;;;;7.60;3.72;;;;;;;20.95;47.31;98198.06;5112809;28;20048;-67
2024/04/01 09:07:00;;;;;;;6.13;2.83;;;;;;;20.96;47.04;98198.91;5113020;28;20038;-66
2024/04/01 09:09:29;;;;;;;2.80;2.53;;;;;;;20.97;47.67;98198.78;5095533;28;20048;-67
2024/04/01 09:11:57;;;;;;;3.85;3.30;;;;;;;21.00;47.40;98201.19;5112536;28;20058;-66
2024/04/01 09:14:25;;;;;;;22.38;5.30;;;;;;;21.03;47.50;98195.81;5112820;28;20043;-66
2024/04/01 09:16:52;;;;;;;12.77;4.25;;;;;;;21.05;46.85;98206.94;5112721;28;20031;-67
2024/04/01 09:19:20;;;;;;;29.00;4.30;;;;;;;21.11;46.89;98208.28;5112287;28;20059;-67
2024/04/01 09:21:50;;;;;;;2.85;1.77;;;;;;;21.13;46.88;98212.44;5112213;28;20040;-68
2024/04/01 09:24:18;;;;;;;11.80;4.28;;;;;;;21.16;46.51;98212.22;5115667;28;20066;-66
2024/04/01 09:26:48;;;;;;;3.50;2.47;;;;;;;21.22;46.56;98196.25;5116541;28;20432;-66
2024/04/01 09:29:16;;;;;;;3.10;2.30;;;;;;;21.27;46.08;98193.34;5116302;28;20100;-67
2024/04/01 09:31:45;;;;;;;6.78;5.72;;;;;;;21.31;45.50;98185.25;5116168;28;20088;-67
2024/04/01 09:34:13;;;;;;;3.80;2.53;;;;;;;21.43;45.28;98206.94;5115780;28;20054;-67
2024/04/01 09:36:40;;;;;;;11.05;6.30;;;;;;;21.49;44.82;98197.91;5116434;28;20055;-67
2024/04/01 09:39:08;;;;;;;3.35;1.88;;;;;;;21.54;44.83;98186.28;5116137;28;20036;-68
2024/04/01 09:41:36;;;;;;;1.70;1.50;;;;;;;21.62;45.78;98180.56;5116109;28;20543;-67
2024/04/01 09:44:07;;;;;;;3.97;3.35;;;;;;;21.66;45.54;98174.22;5115578;28;20482;-66
2024/04/01 09:46:34;;;;;;;6.57;3.35;;;;;;;21.74;45.34;98177.91;5116507;28;20048;-66
2024/04/01 09:49:03;;;;;;;18.58;4.68;;;;;;;21.78;45.33;98158.59;5115559;28;20542;-65
2024/04/01 09:51:32;;;;;;;37.63;6.60;;;;;;;21.86;44.31;98156.31;5116047;28;20516;-67
2024/04/01 09:53:59;;;;;;;8.57;5.10;;;;;;;21.90;44.69;98173.38;5115490;28;20039;-68
2024/04/01 09:57:03;;;;;;;13.32;5.35;;;;;;;21.95;45.20;98160.84;5115475;28;20486;-67
2024/04/01 10:00:04;;;;;;;3.88;3.33;;;;;;;22.04;44.45;98185.38;5098536;28;20506;-66
2024/04/01 10:03:13;;;;;;;11.95;5.07;;;;;;;22.13;44.42;98173.47;5115716;28;20031;-65
2024/04/01 10:06:12;;;;;;;3.10;2.55;;;;;;;22.24;43.70;98187.38;5115323;28;20043;-67
2024/04/01 10:09:14;;;;;;;11.25;5.43;;;;;;;22.42;43.43;98186.03;5115616;28;20058;-67
2024/04/01 10:12:06;;;;;;;2.28;1.90;;;;;;;22.53;43.30;98178.28;5115728;28;20052;-68
2024/04/01 10:15:17;;;;;;;17.27;4.22;;;;;;;22.69;42.21;98198.84;5098398;28;20067;-67
2024/04/01 10:18:02;;;;;;;12.07;3.65;;;;;;;22.89;41.25;98179.16;5115294;28;20040;-67
2024/04/01 10:21:08;;;;;;;20.00;4.85;;;;;;;23.15;42.00;98167.63;5081072;28;20044;-68
2024/04/01 10:24:10;;;;;;;23.90;6.07;;;;;;;23.43;39.91;98180.22;5098128;28;20035;-69
2024/04/01 10:26:54;;;;;;;6.18;5.55;;;;;;;23.45;40.08;98177.47;5115222;28;20052;-66
2024/04/01 10:29:54;;;;;;;2.92;2.53;;;;;;;23.44;40.19;98161.03;5115180;28;20039;-66
2024/04/01 10:32:52;;;;;;;4.40;2.88;;;;;;;23.48;39.65;98169.44;5081167;28;20044;-68
2024/04/01 10:35:56;;;;;;;8.23;4.35;;;;;;;23.44;38.91;98168.03;5097663;28;20165;-65
2024/04/01 10:39:04;;;;;;;3.88;3.17;;;;;;;23.47;39.49;98171.19;5077262;28;20040;-68
2024/04/01 10:42:03;;;;;;;6.27;4.67;;;;;;;23.60;39.86;98177.13;5094403;28;20093;-68
2024/04/01 10:45:06;;;;;;;17.50;3.80;;;;;;;23.73;40.53;98172.59;5092272;28;20048;-68
2024/04/01 10:47:59;;;;;;;10.48;4.70;;;;;;;23.91;41.14;98173.78;5067680;28;20048;-68
2024/04/01 10:50:53;;;;;;;4.78;4.28;;;;;;;24.06;41.07;98189.16;5093870;28;20040;-68
2024/04/01 10:53:51;;;;;;;4.03;3.35;;;;;;;23.95;39.83;98183.00;5104896;28;20047;-66
2024/04/01 10:56:55;;;;;;;6.50;3.63;;;;;;;23.90;40.10;98161.69;5106129;28;20059;-68
2024/04/01 10:59:49;;;;;;;4.05;3.33;;;;;;;23.94;40.18;98175.31;5111941;28;20389;-65
2024/04/01 11:02:47;;;;;;;4.00;2.95;;;;;;;23.97;39.82;98160.25;5097492;28;20047;-67
2024/04/01 11:05:34;;;;;;;18.50;7.60;;;;;;;23.94;38.90;98113.59;5114881;28;20047;-67
2024/04/01 11:08:17;;;;;;;8.52;3.75;;;;;;;23.91;38.88;98152.94;5114345;28;20048;-69
2024/04/01 11:10:50;;;;;;;16.98;5.40;;;;;;;23.95;39.14;98154.34;5114349;28;20578;-66
2024/04/01 11:13:21;;;;;;;20.33;4.78;;;;;;;24.08;39.16;98151.63;5114146;28;20045;-70
2024/04/01 11:15:54;;;;;;;3.92;2.67;;;;;;;24.22;39.37;98142.69;5114261;28;20039;-65
2024/04/01 11:18:46;;;;;;;14.13;4.78;;;;;;;24.33;39.48;98160.91;5114002;28;20044;-65
2024/04/01 11:21:20;;;;;;;7.32;4.30;;;;;;;24.39;39.39;98161.25;5097186;28;20406;-66
2024/04/01 11:24:01;;;;;;;9.15;4.05;;;;;;;24.39;38.51;98152.59;5114041;28;20044;-65
2024/04/01 11:27:00;;;;;;;14.18;5.75;;;;;;;24.53;38.98;98139.25;5114084;28;20122;-67
2024/04/01 11:29:57;;;;;;;8.98;4.95;;;;;;;24.64;38.56;98139.19;5113705;28;20047;-65
2024/04/01 11:32:26;;;;;;;2.92;2.08;;;;;;;24.76;38.58;98143.41;5114107;28;20054;-66
2024/04/01 11:35:05;;;;;;;20.55;5.53;;;;;;;24.84;38.02;98135.78;5113589;28;20035;-67
2024/04/01 11:37:38;;;;;;;3.53;3.13;;;;;;;24.74;37.72;98137.47;5114095;28;20047;-67
2024/04/01 11:40:10;;;;;;;8.75;3.88;;;;;;;24.72;37.61;98115.88;5096897;28;20040;-66
2024/04/01 11:42:42;;;;;;;14.48;3.72;;;;;;;24.79;37.60;98118.84;5113755;28;20044;-65
2024/04/01 11:45:12;;;;;;;6.15;3.85;;;;;;;24.84;37.51;98112.28;5112672;28;20040;-66
2024/04/01 11:47:43;;;;;;;15.90;6.07;;;;;;;24.91;38.89;98116.03;5113766;28;20142;-66
2024/04/01 11:50:14;;;;;;;7.43;4.50;;;;;;;24.83;37.26;98118.47;5113512;28;20048;-67